sensor_id;sensor_type;location;lat;lon;timestamp;pressure;altitude;pressure_sealevel;temperature;humidity
33697;BME280;20031;43.416;23.232;2023-06-24T00:02:12;99734.94;;;24.30;77.67
33697;BME280;20031;43.416;23.232;2023-06-24T00:04:38;99744.50;;;24.26;77.81
33697;BME280;20031;43.416;23.232;2023-06-24T00:07:04;99746.91;;;24.28;77.96
33697;BME280;20031;43.416;23.232;2023-06-24T00:09:29;99746.06;;;24.22;77.51
33697;BME280;20031;43.416;23.232;2023-06-24T00:11:58;99737.72;;;24.14;77.37
33697;BME280;20031;43.416;23.232;2023-06-24T00:14:25;99747.72;;;24.02;77.75
33697;BME280;20031;43.416;23.232;2023-06-24T00:16:52;99743.88;;;23.88;78.66
33697;BME280;20031;43.416;23.232;2023-06-24T00:19:22;99747.75;;;23.76;78.76
33697;BME280;20031;43.416;23.232;2023-06-24T00:21:49;99746.47;;;23.62;79.55
33697;BME280;20031;43.416;23.232;2023-06-24T00:24:21;99749.81;;;23.53;79.78
33697;BME280;20031;43.416;23.232;2023-06-24T00:26:53;99748.91;;;23.42;80.38
33697;BME280;20031;43.416;23.232;2023-06-24T00:29:18;99750.16;;;23.35;81.14
33697;BME280;20031;43.416;23.232;2023-06-24T00:31:44;99748.75;;;23.27;81.65
33697;BME280;20031;43.416;23.232;2023-06-24T00:34:09;99748.66;;;23.22;81.71
33697;BME280;20031;43.416;23.232;2023-06-24T00:36:35;99747.28;;;23.20;82.34
33697;BME280;20031;43.416;23.232;2023-06-24T00:39:01;99748.66;;;23.22;82.36
33697;BME280;20031;43.416;23.232;2023-06-24T00:41:29;99741.00;;;23.26;82.52
33697;BME280;20031;43.416;23.232;2023-06-24T00:43:56;99731.16;;;23.26;82.58
33697;BME280;20031;43.416;23.232;2023-06-24T00:46:23;99733.28;;;23.24;82.48
33697;BME280;20031;43.416;23.232;2023-06-24T00:48:56;99737.78;;;23.24;82.84
33697;BME280;20031;43.416;23.232;2023-06-24T00:51:22;99738.09;;;23.27;83.45
33697;BME280;20031;43.416;23.232;2023-06-24T00:53:54;99733.28;;;23.24;82.84
33697;BME280;20031;43.416;23.232;2023-06-24T00:56:28;99733.75;;;23.21;83.01
33697;BME280;20031;43.416;23.232;2023-06-24T00:58:56;99736.41;;;23.21;83.35
33697;BME280;20031;43.416;23.232;2023-06-24T01:01:23;99733.81;;;23.26;83.63
33697;BME280;20031;43.416;23.232;2023-06-24T01:03:49;99736.31;;;23.33;83.72
33697;BME280;20031;43.416;23.232;2023-06-24T01:06:14;99744.09;;;23.39;83.49
33697;BME280;20031;43.416;23.232;2023-06-24T01:08:40;99742.53;;;23.43;83.10
33697;BME280;20031;43.416;23.232;2023-06-24T01:11:05;99736.72;;;23.46;82.85
33697;BME280;20031;43.416;23.232;2023-06-24T01:13:31;99739.38;;;23.46;82.93
33697;BME280;20031;43.416;23.232;2023-06-24T01:16:00;99751.31;;;23.44;82.74
33697;BME280;20031;43.416;23.232;2023-06-24T01:18:43;99749.66;;;23.38;82.56
33697;BME280;20031;43.416;23.232;2023-06-24T01:21:21;99748.75;;;23.27;82.41
33697;BME280;20031;43.416;23.232;2023-06-24T01:24:19;99752.69;;;23.25;83.06
33697;BME280;20031;43.416;23.232;2023-06-24T01:27:10;99753.97;;;23.22;82.94
33697;BME280;20031;43.416;23.232;2023-06-24T01:29:52;99758.66;;;23.15;82.77
33697;BME280;20031;43.416;23.232;2023-06-24T01:35:07;99760.53;;;23.15;83.25
33697;BME280;20031;43.416;23.232;2023-06-24T01:37:42;99758.47;;;23.01;83.69
33697;BME280;20031;43.416;23.232;2023-06-24T01:40:28;99760.47;;;22.94;83.53
33697;BME280;20031;43.416;23.232;2023-06-24T01:42:59;99769.97;;;22.90;83.85
33697;BME280;20031;43.416;23.232;2023-06-24T01:45:28;99766.81;;;22.93;83.85
33697;BME280;20031;43.416;23.232;2023-06-24T01:48:07;99760.25;;;22.95;83.78
33697;BME280;20031;43.416;23.232;2023-06-24T01:50:35;99767.19;;;22.96;83.64
33697;BME280;20031;43.416;23.232;2023-06-24T01:53:05;99780.09;;;22.93;83.02
33697;BME280;20031;43.416;23.232;2023-06-24T01:55:32;99778.59;;;22.97;83.83
33697;BME280;20031;43.416;23.232;2023-06-24T01:58:00;99779.72;;;23.01;83.48
33697;BME280;20031;43.416;23.232;2023-06-24T02:00:27;99784.31;;;23.05;83.27
33697;BME280;20031;43.416;23.232;2023-06-24T02:02:54;99792.56;;;23.08;83.10
33697;BME280;20031;43.416;23.232;2023-06-24T02:05:20;99795.25;;;23.08;83.04
33697;BME280;20031;43.416;23.232;2023-06-24T02:07:47;99793.66;;;23.08;82.85
33697;BME280;20031;43.416;23.232;2023-06-24T02:10:15;99792.03;;;23.07;82.88
33697;BME280;20031;43.416;23.232;2023-06-24T02:12:42;99789.13;;;23.08;82.85
33697;BME280;20031;43.416;23.232;2023-06-24T02:15:08;99792.09;;;23.11;82.88
33697;BME280;20031;43.416;23.232;2023-06-24T02:17:35;99792.03;;;23.07;82.31
33697;BME280;20031;43.416;23.232;2023-06-24T02:20:01;99798.38;;;23.06;82.41
33697;BME280;20031;43.416;23.232;2023-06-24T02:22:27;99806.06;;;23.02;82.74
33697;BME280;20031;43.416;23.232;2023-06-24T02:24:54;99810.53;;;23.02;82.69
33697;BME280;20031;43.416;23.232;2023-06-24T02:27:21;99821.81;;;22.92;82.05
33697;BME280;20031;43.416;23.232;2023-06-24T02:29:47;99817.25;;;22.88;82.49
33697;BME280;20031;43.416;23.232;2023-06-24T02:32:13;99820.38;;;22.85;82.82
33697;BME280;20031;43.416;23.232;2023-06-24T02:34:39;99827.78;;;22.83;82.62
33697;BME280;20031;43.416;23.232;2023-06-24T02:37:05;99824.63;;;22.86;82.82
33697;BME280;20031;43.416;23.232;2023-06-24T02:39:30;99827.03;;;22.87;83.00
33697;BME280;20031;43.416;23.232;2023-06-24T02:41:56;99828.97;;;22.92;82.89
33697;BME280;20031;43.416;23.232;2023-06-24T02:44:21;99833.81;;;22.95;82.90
33697;BME280;20031;43.416;23.232;2023-06-24T02:46:47;99831.75;;;22.97;82.81
33697;BME280;20031;43.416;23.232;2023-06-24T02:49:15;99825.69;;;23.01;82.95
33697;BME280;20031;43.416;23.232;2023-06-24T02:51:44;99828.09;;;23.03;82.19
33697;BME280;20031;43.416;23.232;2023-06-24T02:54:09;99836.66;;;23.05;82.68
33697;BME280;20031;43.416;23.232;2023-06-24T02:56:36;99837.75;;;23.08;82.33
33697;BME280;20031;43.416;23.232;2023-06-24T02:59:07;99845.81;;;23.13;82.21
33697;BME280;20031;43.416;23.232;2023-06-24T03:01:33;99841.63;;;23.17;82.26
33697;BME280;20031;43.416;23.232;2023-06-24T03:04:04;99833.66;;;23.17;82.11
33697;BME280;20031;43.416;23.232;2023-06-24T03:06:30;99832.34;;;23.20;81.76
33697;BME280;20031;43.416;23.232;2023-06-24T03:08:57;99824.94;;;23.22;81.80
33697;BME280;20031;43.416;23.232;2023-06-24T03:11:23;99826.72;;;23.16;81.41
33697;BME280;20031;43.416;23.232;2023-06-24T03:13:48;99832.03;;;23.16;81.76
33697;BME280;20031;43.416;23.232;2023-06-24T03:16:14;99830.56;;;23.25;82.28
33697;BME280;20031;43.416;23.232;2023-06-24T03:18:41;99830.06;;;23.28;81.63
33697;BME280;20031;43.416;23.232;2023-06-24T03:21:07;99827.41;;;23.28;81.55
33697;BME280;20031;43.416;23.232;2023-06-24T03:23:33;99828.25;;;23.29;81.53
33697;BME280;20031;43.416;23.232;2023-06-24T03:25:58;99826.91;;;23.31;82.19
33697;BME280;20031;43.416;23.232;2023-06-24T03:28:24;99826.72;;;23.33;82.20
33697;BME280;20031;43.416;23.232;2023-06-24T03:30:49;99833.94;;;23.37;81.93
33697;BME280;20031;43.416;23.232;2023-06-24T03:33:15;99831.91;;;23.44;82.20
33697;BME280;20031;43.416;23.232;2023-06-24T03:35:42;99843.47;;;23.55;81.30
33697;BME280;20031;43.416;23.232;2023-06-24T03:38:08;99840.16;;;23.64;81.20
33697;BME280;20031;43.416;23.232;2023-06-24T03:40:33;99849.06;;;23.74;81.05
33697;BME280;20031;43.416;23.232;2023-06-24T03:42:59;99853.72;;;23.84;80.38
33697;BME280;20031;43.416;23.232;2023-06-24T03:45:24;99858.34;;;23.93;79.93
33697;BME280;20031;43.416;23.232;2023-06-24T03:47:50;99861.38;;;24.02;79.66
33697;BME280;20031;43.416;23.232;2023-06-24T03:50:15;99862.78;;;24.09;78.89
33697;BME280;20031;43.416;23.232;2023-06-24T03:52:41;99870.00;;;24.13;77.76
33697;BME280;20031;43.416;23.232;2023-06-24T03:55:07;99878.06;;;24.18;77.32
33697;BME280;20031;43.416;23.232;2023-06-24T03:57:32;99865.88;;;24.22;76.83
33697;BME280;20031;43.416;23.232;2023-06-24T03:59:57;99867.16;;;24.20;76.21
33697;BME280;20031;43.416;23.232;2023-06-24T04:02:23;99863.97;;;24.18;76.51
33697;BME280;20031;43.416;23.232;2023-06-24T04:04:48;99862.19;;;24.28;77.13
33697;BME280;20031;43.416;23.232;2023-06-24T04:07:16;99855.97;;;24.39;76.12
33697;BME280;20031;43.416;23.232;2023-06-24T04:09:53;99862.59;;;24.37;76.31
33697;BME280;20031;43.416;23.232;2023-06-24T04:12:19;99852.78;;;24.42;75.73
33697;BME280;20031;43.416;23.232;2023-06-24T04:14:45;99853.34;;;24.44;75.52
33697;BME280;20031;43.416;23.232;2023-06-24T04:17:10;99857.75;;;24.60;75.86
33697;BME280;20031;43.416;23.232;2023-06-24T04:19:36;99860.75;;;24.68;74.98
33697;BME280;20031;43.416;23.232;2023-06-24T04:22:01;99859.00;;;24.79;73.97
33697;BME280;20031;43.416;23.232;2023-06-24T04:24:27;99860.41;;;24.91;74.19
33697;BME280;20031;43.416;23.232;2023-06-24T04:26:52;99857.28;;;24.99;72.88
33697;BME280;20031;43.416;23.232;2023-06-24T04:29:17;99864.00;;;25.02;72.23
33697;BME280;20031;43.416;23.232;2023-06-24T04:31:43;99870.50;;;25.16;72.55
33697;BME280;20031;43.416;23.232;2023-06-24T04:34:08;99876.25;;;25.39;72.07
33697;BME280;20031;43.416;23.232;2023-06-24T04:36:34;99867.00;;;25.56;71.33
33697;BME280;20031;43.416;23.232;2023-06-24T04:39:00;99863.41;;;25.77;71.25
33697;BME280;20031;43.416;23.232;2023-06-24T04:41:26;99862.66;;;25.91;70.25
33697;BME280;20031;43.416;23.232;2023-06-24T04:43:51;99861.38;;;26.09;69.54
33697;BME280;20031;43.416;23.232;2023-06-24T04:46:16;99866.50;;;26.25;68.96
33697;BME280;20031;43.416;23.232;2023-06-24T04:48:42;99862.81;;;26.41;68.46
33697;BME280;20031;43.416;23.232;2023-06-24T04:51:07;99867.66;;;26.54;67.69
33697;BME280;20031;43.416;23.232;2023-06-24T04:53:33;99864.72;;;26.65;67.19
33697;BME280;20031;43.416;23.232;2023-06-24T04:55:59;99875.44;;;26.80;66.55
33697;BME280;20031;43.416;23.232;2023-06-24T04:58:24;99869.53;;;26.88;66.52
33697;BME280;20031;43.416;23.232;2023-06-24T05:00:50;99868.72;;;26.77;66.04
33697;BME280;20031;43.416;23.232;2023-06-24T05:03:15;99863.13;;;26.79;66.89
33697;BME280;20031;43.416;23.232;2023-06-24T05:05:41;99857.78;;;26.94;65.89
33697;BME280;20031;43.416;23.232;2023-06-24T05:08:06;99859.41;;;27.00;65.87
33697;BME280;20031;43.416;23.232;2023-06-24T05:10:32;99863.13;;;27.09;64.98
33697;BME280;20031;43.416;23.232;2023-06-24T05:12:57;99863.13;;;27.19;65.35
33697;BME280;20031;43.416;23.232;2023-06-24T05:15:22;99864.19;;;27.23;64.37
33697;BME280;20031;43.416;23.232;2023-06-24T05:17:48;99869.25;;;27.29;64.36
33697;BME280;20031;43.416;23.232;2023-06-24T05:20:13;99882.38;;;27.16;64.11
33697;BME280;20031;43.416;23.232;2023-06-24T05:22:39;99875.41;;;27.25;64.88
33697;BME280;20031;43.416;23.232;2023-06-24T05:25:05;99871.63;;;27.45;64.77
33697;BME280;20031;43.416;23.232;2023-06-24T05:27:30;99862.50;;;27.56;64.25
33697;BME280;20031;43.416;23.232;2023-06-24T05:29:56;99861.44;;;27.62;64.02
33697;BME280;20031;43.416;23.232;2023-06-24T05:32:21;99863.00;;;27.73;63.64
33697;BME280;20031;43.416;23.232;2023-06-24T05:34:46;99873.66;;;27.83;63.69
33697;BME280;20031;43.416;23.232;2023-06-24T05:37:12;99869.09;;;27.93;62.98
33697;BME280;20031;43.416;23.232;2023-06-24T05:39:37;99872.22;;;28.05;63.38
33697;BME280;20031;43.416;23.232;2023-06-24T05:42:03;99878.66;;;28.09;63.05
33697;BME280;20031;43.416;23.232;2023-06-24T05:44:29;99870.59;;;28.14;63.18
33697;BME280;20031;43.416;23.232;2023-06-24T05:46:54;99878.88;;;28.23;63.38
33697;BME280;20031;43.416;23.232;2023-06-24T05:49:20;99876.19;;;28.23;63.38
33697;BME280;20031;43.416;23.232;2023-06-24T05:51:45;99878.41;;;28.11;63.72
33697;BME280;20031;43.416;23.232;2023-06-24T05:54:10;99875.75;;;27.96;64.15
33697;BME280;20031;43.416;23.232;2023-06-24T05:56:36;99875.19;;;28.04;64.46
33697;BME280;20031;43.416;23.232;2023-06-24T05:59:02;99874.34;;;28.18;65.06
33697;BME280;20031;43.416;23.232;2023-06-24T06:01:27;99872.94;;;28.26;64.93
33697;BME280;20031;43.416;23.232;2023-06-24T06:03:53;99874.56;;;28.27;64.54
33697;BME280;20031;43.416;23.232;2023-06-24T06:06:18;99878.81;;;28.32;64.75
33697;BME280;20031;43.416;23.232;2023-06-24T06:08:44;99881.41;;;28.47;65.21
33697;BME280;20031;43.416;23.232;2023-06-24T06:11:09;99883.19;;;28.62;64.72
33697;BME280;20031;43.416;23.232;2023-06-24T06:13:35;99883.09;;;28.77;64.67
33697;BME280;20031;43.416;23.232;2023-06-24T06:16:00;99888.09;;;28.88;64.30
33697;BME280;20031;43.416;23.232;2023-06-24T06:18:25;99887.50;;;28.96;63.96
33697;BME280;20031;43.416;23.232;2023-06-24T06:20:51;99888.50;;;29.05;64.36
33697;BME280;20031;43.416;23.232;2023-06-24T06:23:17;99881.16;;;29.15;64.21
33697;BME280;20031;43.416;23.232;2023-06-24T06:25:43;99886.41;;;29.30;63.48
33697;BME280;20031;43.416;23.232;2023-06-24T06:28:08;99888.88;;;29.22;62.71
33697;BME280;20031;43.416;23.232;2023-06-24T06:30:34;99894.25;;;29.27;62.61
33697;BME280;20031;43.416;23.232;2023-06-24T06:32:59;99889.09;;;29.30;62.24
33697;BME280;20031;43.416;23.232;2023-06-24T06:35:25;99886.09;;;29.37;62.13
33697;BME280;20031;43.416;23.232;2023-06-24T06:37:50;99888.59;;;29.51;62.03
33697;BME280;20031;43.416;23.232;2023-06-24T06:40:18;99891.00;;;29.53;61.41
33697;BME280;20031;43.416;23.232;2023-06-24T06:42:43;99893.94;;;29.56;61.31
33697;BME280;20031;43.416;23.232;2023-06-24T06:45:09;99894.22;;;29.78;61.12
33697;BME280;20031;43.416;23.232;2023-06-24T06:47:35;99893.34;;;29.88;60.39
33697;BME280;20031;43.416;23.232;2023-06-24T06:50:00;99897.47;;;29.98;60.68
33697;BME280;20031;43.416;23.232;2023-06-24T06:52:26;99889.69;;;29.97;59.36
33697;BME280;20031;43.416;23.232;2023-06-24T06:54:52;99896.09;;;30.01;59.75
33697;BME280;20031;43.416;23.232;2023-06-24T06:57:18;99895.53;;;30.04;59.42
33697;BME280;20031;43.416;23.232;2023-06-24T06:59:43;99898.66;;;30.11;59.42
33697;BME280;20031;43.416;23.232;2023-06-24T07:02:09;99896.84;;;30.06;59.27
33697;BME280;20031;43.416;23.232;2023-06-24T07:04:34;99894.03;;;30.16;58.95
33697;BME280;20031;43.416;23.232;2023-06-24T07:07:00;99901.22;;;30.21;59.01
33697;BME280;20031;43.416;23.232;2023-06-24T07:09:25;99900.31;;;30.30;58.93
33697;BME280;20031;43.416;23.232;2023-06-24T07:11:50;99901.34;;;30.52;58.94
33697;BME280;20031;43.416;23.232;2023-06-24T07:14:16;99900.69;;;30.42;57.98
33697;BME280;20031;43.416;23.232;2023-06-24T07:16:41;99902.44;;;30.51;57.73
33697;BME280;20031;43.416;23.232;2023-06-24T07:19:07;99909.53;;;30.61;57.81
33697;BME280;20031;43.416;23.232;2023-06-24T07:21:32;99915.50;;;30.76;57.19
33697;BME280;20031;43.416;23.232;2023-06-24T07:23:58;99909.47;;;30.84;57.40
33697;BME280;20031;43.416;23.232;2023-06-24T07:26:23;99910.25;;;30.85;56.88
33697;BME280;20031;43.416;23.232;2023-06-24T07:28:49;99906.94;;;30.93;57.14
33697;BME280;20031;43.416;23.232;2023-06-24T07:31:14;99902.00;;;30.99;55.88
33697;BME280;20031;43.416;23.232;2023-06-24T07:33:39;99896.50;;;31.04;55.98
33697;BME280;20031;43.416;23.232;2023-06-24T07:36:05;99900.94;;;31.14;55.44
33697;BME280;20031;43.416;23.232;2023-06-24T07:38:30;99902.25;;;31.16;56.32
33697;BME280;20031;43.416;23.232;2023-06-24T07:40:56;99903.88;;;31.31;55.13
33697;BME280;20031;43.416;23.232;2023-06-24T07:43:21;99901.22;;;31.44;54.58
33697;BME280;20031;43.416;23.232;2023-06-24T07:45:47;99899.34;;;31.58;54.33
33697;BME280;20031;43.416;23.232;2023-06-24T07:48:12;99899.72;;;31.51;54.30
33697;BME280;20031;43.416;23.232;2023-06-24T07:50:38;99896.34;;;31.46;54.20
33697;BME280;20031;43.416;23.232;2023-06-24T07:53:04;99900.75;;;31.69;54.18
33697;BME280;20031;43.416;23.232;2023-06-24T07:55:30;99889.56;;;31.89;54.40
33697;BME280;20031;43.416;23.232;2023-06-24T07:57:56;99896.97;;;31.97;53.61
33697;BME280;20031;43.416;23.232;2023-06-24T08:00:23;99895.28;;;32.00;53.03
33697;BME280;20031;43.416;23.232;2023-06-24T08:02:49;99895.63;;;32.21;52.76
33697;BME280;20031;43.416;23.232;2023-06-24T08:05:15;99896.75;;;32.20;52.39
33697;BME280;20031;43.416;23.232;2023-06-24T08:07:43;99898.53;;;32.24;52.45
33697;BME280;20031;43.416;23.232;2023-06-24T08:10:09;99894.69;;;32.39;52.23
33697;BME280;20031;43.416;23.232;2023-06-24T08:12:34;99900.41;;;32.37;52.38
33697;BME280;20031;43.416;23.232;2023-06-24T08:15:00;99886.41;;;32.35;51.72
33697;BME280;20031;43.416;23.232;2023-06-24T08:17:25;99889.50;;;32.55;52.23
33697;BME280;20031;43.416;23.232;2023-06-24T08:19:51;99893.81;;;32.78;52.77
33697;BME280;20031;43.416;23.232;2023-06-24T08:22:16;99895.91;;;33.03;51.77
33697;BME280;20031;43.416;23.232;2023-06-24T08:24:42;99891.84;;;33.14;50.86
33697;BME280;20031;43.416;23.232;2023-06-24T08:27:07;99894.75;;;33.26;49.37
33697;BME280;20031;43.416;23.232;2023-06-24T08:29:33;99888.03;;;33.15;49.07
33697;BME280;20031;43.416;23.232;2023-06-24T08:31:59;99878.28;;;33.05;49.35
33697;BME280;20031;43.416;23.232;2023-06-24T08:34:24;99882.75;;;33.10;49.11
33697;BME280;20031;43.416;23.232;2023-06-24T08:36:50;99881.91;;;33.01;48.52
33697;BME280;20031;43.416;23.232;2023-06-24T08:39:15;99874.13;;;33.00;48.30
33697;BME280;20031;43.416;23.232;2023-06-24T08:41:41;99877.03;;;33.11;47.94
33697;BME280;20031;43.416;23.232;2023-06-24T08:44:06;99867.59;;;33.22;48.75
33697;BME280;20031;43.416;23.232;2023-06-24T08:46:32;99864.94;;;33.31;48.37
33697;BME280;20031;43.416;23.232;2023-06-24T08:49:32;99857.94;;;33.60;49.43
33697;BME280;20031;43.416;23.232;2023-06-24T08:52:13;99867.88;;;33.81;48.36
33697;BME280;20031;43.416;23.232;2023-06-24T08:54:40;99869.16;;;33.92;47.51
33697;BME280;20031;43.416;23.232;2023-06-24T08:57:06;99866.69;;;34.04;46.72
33697;BME280;20031;43.416;23.232;2023-06-24T08:59:36;99860.63;;;34.07;47.05
33697;BME280;20031;43.416;23.232;2023-06-24T09:02:02;99858.09;;;34.27;45.75
33697;BME280;20031;43.416;23.232;2023-06-24T09:04:28;99857.13;;;34.23;45.77
33697;BME280;20031;43.416;23.232;2023-06-24T09:06:54;99854.59;;;34.27;45.35
33697;BME280;20031;43.416;23.232;2023-06-24T09:09:20;99871.81;;;34.48;46.24
33697;BME280;20031;43.416;23.232;2023-06-24T09:11:55;99864.50;;;34.73;46.01
33697;BME280;20031;43.416;23.232;2023-06-24T09:14:21;99866.56;;;34.93;44.32
33697;BME280;20031;43.416;23.232;2023-06-24T09:16:56;99863.66;;;35.15;44.04
33697;BME280;20031;43.416;23.232;2023-06-24T09:19:23;99868.84;;;35.28;43.49
33697;BME280;20031;43.416;23.232;2023-06-24T09:21:49;99873.94;;;35.38;43.16
33697;BME280;20031;43.416;23.232;2023-06-24T09:24:15;99870.44;;;35.46;42.97
33697;BME280;20031;43.416;23.232;2023-06-24T09:26:42;99878.31;;;35.14;43.75
33697;BME280;20031;43.416;23.232;2023-06-24T09:29:10;99875.94;;;34.96;44.86
33697;BME280;20031;43.416;23.232;2023-06-24T09:31:46;99875.16;;;34.53;45.17
33697;BME280;20031;43.416;23.232;2023-06-24T09:34:15;99870.53;;;34.28;45.97
33697;BME280;20031;43.416;23.232;2023-06-24T09:36:44;99875.13;;;34.11;45.93
33697;BME280;20031;43.416;23.232;2023-06-24T09:39:10;99880.50;;;33.94;46.33
33697;BME280;20031;43.416;23.232;2023-06-24T09:41:36;99885.47;;;34.17;47.55
33697;BME280;20031;43.416;23.232;2023-06-24T09:44:10;99886.97;;;34.57;45.59
33697;BME280;20031;43.416;23.232;2023-06-24T09:46:37;99882.94;;;35.14;45.74
33697;BME280;20031;43.416;23.232;2023-06-24T09:49:04;99889.19;;;35.60;43.83
33697;BME280;20031;43.416;23.232;2023-06-24T09:51:33;99883.28;;;35.95;43.81
33697;BME280;20031;43.416;23.232;2023-06-24T09:54:04;99879.41;;;36.04;42.09
33697;BME280;20031;43.416;23.232;2023-06-24T09:56:31;99885.56;;;36.13;41.85
33697;BME280;20031;43.416;23.232;2023-06-24T09:58:58;99879.78;;;35.94;42.23
33697;BME280;20031;43.416;23.232;2023-06-24T10:01:23;99872.75;;;35.93;42.37
33697;BME280;20031;43.416;23.232;2023-06-24T10:03:49;99875.34;;;35.90;41.41
33697;BME280;20031;43.416;23.232;2023-06-24T10:06:14;99881.91;;;35.80;42.06
33697;BME280;20031;43.416;23.232;2023-06-24T10:08:40;99882.09;;;35.84;41.85
33697;BME280;20031;43.416;23.232;2023-06-24T10:11:05;99871.97;;;35.93;42.50
33697;BME280;20031;43.416;23.232;2023-06-24T10:13:31;99874.66;;;36.01;42.57
33697;BME280;20031;43.416;23.232;2023-06-24T10:15:56;99861.69;;;36.27;42.36
33697;BME280;20031;43.416;23.232;2023-06-24T10:18:36;99853.44;;;36.23;42.00
33697;BME280;20031;43.416;23.232;2023-06-24T10:21:06;99851.34;;;36.20;41.83
33697;BME280;20031;43.416;23.232;2023-06-24T10:23:55;99850.09;;;36.18;41.86
33697;BME280;20031;43.416;23.232;2023-06-24T10:26:35;99848.22;;;35.90;42.09
33697;BME280;20031;43.416;23.232;2023-06-24T10:37:04;99835.38;;;36.19;41.04
33697;BME280;20031;43.416;23.232;2023-06-24T10:39:49;99825.59;;;35.86;41.62
33697;BME280;20031;43.416;23.232;2023-06-24T10:47:36;99813.25;;;36.70;41.78
33697;BME280;20031;43.416;23.232;2023-06-24T10:50:03;99821.94;;;36.83;41.07
33697;BME280;20031;43.416;23.232;2023-06-24T10:52:29;99811.28;;;36.78;41.27
33697;BME280;20031;43.416;23.232;2023-06-24T10:54:56;99810.13;;;36.47;41.11
33697;BME280;20031;43.416;23.232;2023-06-24T10:57:24;99815.94;;;36.58;40.58
33697;BME280;20031;43.416;23.232;2023-06-24T10:59:51;99815.72;;;36.63;41.15
33697;BME280;20031;43.416;23.232;2023-06-24T11:02:18;99795.38;;;36.69;40.78
33697;BME280;20031;43.416;23.232;2023-06-24T11:04:52;99794.16;;;36.25;40.96
33697;BME280;20031;43.416;23.232;2023-06-24T11:07:26;99800.41;;;35.48;41.93
33697;BME280;20031;43.416;23.232;2023-06-24T11:09:53;99801.06;;;34.83;43.11
33697;BME280;20031;43.416;23.232;2023-06-24T11:12:23;99796.94;;;34.77;43.22
33697;BME280;20031;43.416;23.232;2023-06-24T11:14:49;99801.44;;;34.22;44.48
33697;BME280;20031;43.416;23.232;2023-06-24T11:17:15;99795.53;;;33.95;45.31
33697;BME280;20031;43.416;23.232;2023-06-24T11:19:40;99796.72;;;33.64;46.21
33697;BME280;20031;43.416;23.232;2023-06-24T11:22:07;99787.00;;;33.46;46.87
33697;BME280;20031;43.416;23.232;2023-06-24T11:24:33;99778.06;;;33.07;47.69
33697;BME280;20031;43.416;23.232;2023-06-24T11:26:59;99775.19;;;32.82;48.46
33697;BME280;20031;43.416;23.232;2023-06-24T11:29:28;99771.84;;;32.76;48.62
33697;BME280;20031;43.416;23.232;2023-06-24T11:31:55;99780.69;;;32.68;48.32
33697;BME280;20031;43.416;23.232;2023-06-24T11:34:21;99781.94;;;32.62;48.25
33697;BME280;20031;43.416;23.232;2023-06-24T11:36:47;99776.16;;;32.55;48.23
33697;BME280;20031;43.416;23.232;2023-06-24T11:39:26;99785.19;;;32.51;48.52
33697;BME280;20031;43.416;23.232;2023-06-24T11:41:53;99783.47;;;32.42;49.00
33697;BME280;20031;43.416;23.232;2023-06-24T11:44:23;99792.13;;;32.30;48.94
33697;BME280;20031;43.416;23.232;2023-06-24T11:46:49;99815.25;;;32.23;49.32
33697;BME280;20031;43.416;23.232;2023-06-24T11:49:15;99811.28;;;32.07;50.63
33697;BME280;20031;43.416;23.232;2023-06-24T11:51:48;99807.69;;;31.98;50.91
33697;BME280;20031;43.416;23.232;2023-06-24T11:54:16;99811.41;;;31.89;51.29
33697;BME280;20031;43.416;23.232;2023-06-24T11:56:44;99818.78;;;31.83;51.83
33697;BME280;20031;43.416;23.232;2023-06-24T12:01:43;99807.84;;;31.66;52.06
33697;BME280;20031;43.416;23.232;2023-06-24T12:04:15;99804.66;;;31.64;52.74
33697;BME280;20031;43.416;23.232;2023-06-24T12:06:41;99807.03;;;31.52;52.59
33697;BME280;20031;43.416;23.232;2023-06-24T12:09:08;99825.06;;;31.39;53.02
33697;BME280;20031;43.416;23.232;2023-06-24T12:11:33;99840.69;;;31.23;53.78
33697;BME280;20031;43.416;23.232;2023-06-24T12:13:59;99839.59;;;31.11;54.49
33697;BME280;20031;43.416;23.232;2023-06-24T12:16:24;99834.41;;;31.01;54.66
33697;BME280;20031;43.416;23.232;2023-06-24T12:18:51;99829.63;;;30.98;54.84
33697;BME280;20031;43.416;23.232;2023-06-24T12:21:17;99813.25;;;30.94;55.13
33697;BME280;20031;43.416;23.232;2023-06-24T12:23:42;99810.34;;;30.91;54.82
33697;BME280;20031;43.416;23.232;2023-06-24T12:26:08;99807.09;;;30.89;55.26
33697;BME280;20031;43.416;23.232;2023-06-24T12:28:33;99798.06;;;30.85;55.59
33697;BME280;20031;43.416;23.232;2023-06-24T12:30:59;99798.63;;;30.82;55.48
33697;BME280;20031;43.416;23.232;2023-06-24T12:33:24;99793.63;;;30.76;55.68
33697;BME280;20031;43.416;23.232;2023-06-24T12:35:50;99794.53;;;30.71;56.09
33697;BME280;20031;43.416;23.232;2023-06-24T12:38:15;99788.44;;;30.66;55.96
33697;BME280;20031;43.416;23.232;2023-06-24T12:40:41;99790.41;;;30.60;56.40
33697;BME280;20031;43.416;23.232;2023-06-24T12:43:07;99795.78;;;30.60;56.36
33697;BME280;20031;43.416;23.232;2023-06-24T12:45:32;99810.41;;;30.54;56.58
33697;BME280;20031;43.416;23.232;2023-06-24T12:47:58;99821.75;;;30.51;56.55
33697;BME280;20031;43.416;23.232;2023-06-24T12:50:24;99826.84;;;30.53;56.51
33697;BME280;20031;43.416;23.232;2023-06-24T12:52:50;99825.34;;;30.47;57.05
33697;BME280;20031;43.416;23.232;2023-06-24T12:55:15;99812.47;;;30.44;56.94
33697;BME280;20031;43.416;23.232;2023-06-24T12:57:41;99802.84;;;30.38;58.71
33697;BME280;20031;43.416;23.232;2023-06-24T13:00:07;99791.16;;;30.29;59.61
33697;BME280;20031;43.416;23.232;2023-06-24T13:02:33;99791.00;;;30.21;60.28
33697;BME280;20031;43.416;23.232;2023-06-24T13:04:59;99789.00;;;30.13;60.29
33697;BME280;20031;43.416;23.232;2023-06-24T13:07:25;99797.41;;;30.06;60.60
33697;BME280;20031;43.416;23.232;2023-06-24T13:09:50;99794.56;;;29.98;60.92